Portal, Georgia
Current Conditions -  °F | °C
As of 9:35 PM on Sunday 23 Nov 2014 (Local Time) from KTBR Reporting Station
Light Rain Light Rain  
Wind Chill: 65°   Ceiling: 12000
Heat Index: 65°   Visibility: 10mi
Dew Point: 65°   Wind: 8mph
Humidity: 100%   Direction: 180°S
Pressure: 29.83"   Gusts: NA
Location:  32.54°N, 81.93°W
Report Text: KTBR 240235Z AUTO 18007KT 10SM -RA SCT055 SCT080 BKN120 19/19 A2983 RMK AO2 LTG DSNT E AND SW T01860186
Loading
Personal Weather Stations






























Interactive Weather Map New forecast layout! Learn more

10-Day Weather Forecast

Advertisements
Track Severe Weather on mobile